Time;durP1;ratioP1;P1;durP2;ratioP2;P2;SDS_P1;SDS_P2;PMS_P1;PMS_P2;Temp;Humidity;BMP_temperature;BMP_pressure;BME280_temperature;BME280_humidity;BME280_pressure;Samples;Min_cycle;Max_cycle;Signal;HPM_P1;HPM_P2
2021/09/01 00:00:40;;;;;;;11.17;7.30;;;;;;;;;;754907;181;916050;-65
2021/09/01 00:03:06;;;;;;;12.00;8.30;;;;;;;;;;754102;184;1014632;-65
2021/09/01 00:05:32;;;;;;;9.37;7.60;;;;;;;;;;758839;182;912429;-65
2021/09/01 00:07:58;;;;;;;14.53;9.40;;;;;;;;;;755044;184;917564;-64
2021/09/01 00:10:24;;;;;;;14.00;8.10;;;;;;;;;;754030;184;952161;-64
2021/09/01 00:12:50;;;;;;;11.00;7.70;;;;;;;;;;760717;183;912699;-64
2021/09/01 00:15:16;;;;;;;12.30;8.20;;;;;;;;;;756448;180;919608;-65
2021/09/01 00:17:41;;;;;;;11.57;8.20;;;;;;;;;;755496;181;915843;-65
2021/09/01 00:20:08;;;;;;;15.87;11.47;;;;;;;;;;755282;183;922194;-64
2021/09/01 00:22:34;;;;;;;16.73;10.83;;;;;;;;;;760387;181;944144;-64
2021/09/01 00:25:01;;;;;;;10.60;7.60;;;;;;;;;;755904;183;921523;-64
2021/09/01 00:27:26;;;;;;;12.13;8.83;;;;;;;;;;754774;184;923856;-65
2021/09/01 00:29:52;;;;;;;10.60;8.53;;;;;;;;;;760077;183;918349;-64
2021/09/01 00:32:19;;;;;;;13.50;8.33;;;;;;;;;;758049;183;918976;-66
2021/09/01 00:34:45;;;;;;;12.55;8.15;;;;;;;;;;755771;183;920949;-64
2021/09/01 00:37:12;;;;;;;10.80;7.65;;;;;;;;;;756197;183;916803;-64
2021/09/01 00:39:37;;;;;;;13.17;8.87;;;;;;;;;;760127;181;920396;-65
2021/09/01 00:42:04;;;;;;;11.90;8.10;;;;;;;;;;753283;183;917178;-66
2021/09/01 00:44:30;;;;;;;13.53;8.10;;;;;;;;;;754107;183;916012;-65
2021/09/01 00:46:56;;;;;;;16.20;8.67;;;;;;;;;;759438;182;916448;-65
2021/09/01 00:49:21;;;;;;;11.67;8.87;;;;;;;;;;748890;184;1836855;-65
2021/09/01 00:51:47;;;;;;;14.07;7.67;;;;;;;;;;755212;182;916241;-65
2021/09/01 00:54:15;;;;;;;16.43;9.27;;;;;;;;;;759817;181;915825;-65
2021/09/01 00:56:43;;;;;;;11.03;7.83;;;;;;;;;;754552;184;908350;-65
2021/09/01 00:59:08;;;;;;;13.23;7.87;;;;;;;;;;755302;181;915233;-65
2021/09/01 01:01:34;;;;;;;11.70;9.33;;;;;;;;;;753115;183;914122;-64
2021/09/01 01:04:00;;;;;;;16.10;8.70;;;;;;;;;;759485;184;913969;-65
2021/09/01 01:06:27;;;;;;;12.93;7.87;;;;;;;;;;753341;181;918970;-66
2021/09/01 01:08:52;;;;;;;17.73;9.48;;;;;;;;;;752960;183;919532;-65
2021/09/01 01:11:18;;;;;;;12.30;8.73;;;;;;;;;;760616;184;918154;-65
2021/09/01 01:13:43;;;;;;;12.27;8.83;;;;;;;;;;756107;184;919166;-65
2021/09/01 01:16:09;;;;;;;13.03;7.80;;;;;;;;;;754543;183;919541;-65
2021/09/01 01:18:35;;;;;;;13.35;8.30;;;;;;;;;;758203;184;919228;-65
2021/09/01 01:21:01;;;;;;;14.10;8.60;;;;;;;;;;754779;184;919217;-66
2021/09/01 01:23:27;;;;;;;16.83;8.90;;;;;;;;;;753866;182;928438;-65
2021/09/01 01:25:53;;;;;;;17.17;8.80;;;;;;;;;;756131;183;918357;-65
2021/09/01 01:28:18;;;;;;;9.43;7.33;;;;;;;;;;765112;183;919852;-65
2021/09/01 01:30:44;;;;;;;11.67;8.87;;;;;;;;;;754588;181;919423;-65
2021/09/01 01:33:10;;;;;;;14.20;8.80;;;;;;;;;;754778;183;919326;-66
2021/09/01 01:35:38;;;;;;;14.83;9.97;;;;;;;;;;763144;183;919454;-66
2021/09/01 01:38:04;;;;;;;9.77;7.30;;;;;;;;;;756734;183;922168;-65
2021/09/01 01:40:30;;;;;;;10.27;8.03;;;;;;;;;;755507;184;918595;-66
2021/09/01 01:42:55;;;;;;;15.00;9.10;;;;;;;;;;761469;183;919238;-66
2021/09/01 01:45:21;;;;;;;12.07;8.27;;;;;;;;;;754720;183;919178;-66
2021/09/01 01:47:47;;;;;;;10.30;7.00;;;;;;;;;;755957;184;919238;-66
2021/09/01 01:50:13;;;;;;;13.87;7.77;;;;;;;;;;753928;183;920100;-66
2021/09/01 01:52:39;;;;;;;12.57;8.07;;;;;;;;;;755199;183;917972;-65
2021/09/01 01:55:05;;;;;;;13.63;8.20;;;;;;;;;;752306;183;915349;-66
2021/09/01 01:57:31;;;;;;;14.77;9.63;;;;;;;;;;754680;183;915392;-65
2021/09/01 01:59:57;;;;;;;11.53;7.73;;;;;;;;;;760997;181;920600;-66
2021/09/01 02:02:29;;;;;;;9.97;6.67;;;;;;;;;;755658;181;919947;-66
2021/09/01 02:04:48;;;;;;;14.53;7.03;;;;;;;;;;754874;184;920108;-65
2021/09/01 02:07:14;;;;;;;10.70;8.00;;;;;;;;;;758101;184;918384;-65
2021/09/01 02:09:40;;;;;;;9.80;7.80;;;;;;;;;;754897;184;918505;-65
2021/09/01 02:12:06;;;;;;;13.67;8.13;;;;;;;;;;755304;184;919516;-64
2021/09/01 02:14:33;;;;;;;12.13;7.57;;;;;;;;;;757930;184;918567;-64
2021/09/01 02:16:58;;;;;;;9.77;7.20;;;;;;;;;;751576;184;919665;-64
2021/09/01 02:19:24;;;;;;;10.03;6.47;;;;;;;;;;752518;184;920336;-65
2021/09/01 02:21:50;;;;;;;14.93;7.50;;;;;;;;;;752793;184;919759;-64
2021/09/01 02:24:16;;;;;;;12.93;7.80;;;;;;;;;;759645;184;919458;-67
2021/09/01 02:26:42;;;;;;;10.75;6.85;;;;;;;;;;755314;184;919300;-64
2021/09/01 02:29:08;;;;;;;10.27;7.43;;;;;;;;;;755198;184;918402;-65
2021/09/01 02:31:33;;;;;;;14.10;7.13;;;;;;;;;;758669;184;919827;-64
2021/09/01 02:33:59;;;;;;;13.83;6.60;;;;;;;;;;754567;184;918715;-65
2021/09/01 02:36:25;;;;;;;10.43;7.23;;;;;;;;;;758030;183;1020913;-64
2021/09/01 02:38:51;;;;;;;13.10;8.30;;;;;;;;;;760496;180;918356;-64
2021/09/01 02:41:17;;;;;;;9.67;6.73;;;;;;;;;;754034;183;918685;-64
2021/09/01 02:43:43;;;;;;;8.30;6.60;;;;;;;;;;755200;183;918463;-65
2021/09/01 02:46:08;;;;;;;9.20;6.85;;;;;;;;;;753919;183;919642;-64
2021/09/01 02:48:34;;;;;;;11.63;7.13;;;;;;;;;;761208;181;915227;-64
2021/09/01 02:51:00;;;;;;;12.60;7.40;;;;;;;;;;755544;181;915922;-65
2021/09/01 02:53:26;;;;;;;11.80;7.10;;;;;;;;;;754425;184;916992;-66
2021/09/01 02:55:52;;;;;;;12.37;7.10;;;;;;;;;;759561;181;916084;-64
2021/09/01 02:58:18;;;;;;;11.30;7.33;;;;;;;;;;755908;183;915416;-64
2021/09/01 03:00:43;;;;;;;12.83;7.47;;;;;;;;;;753730;185;925295;-64
2021/09/01 03:03:09;;;;;;;11.53;7.60;;;;;;;;;;759655;183;919566;-64
2021/09/01 03:05:35;;;;;;;9.50;6.27;;;;;;;;;;753487;184;919562;-64
2021/09/01 03:08:01;;;;;;;11.43;7.33;;;;;;;;;;753481;181;999421;-64
2021/09/01 03:10:27;;;;;;;14.20;7.90;;;;;;;;;;754506;183;918652;-64
2021/09/01 03:12:53;;;;;;;12.23;7.00;;;;;;;;;;754707;184;921252;-64
2021/09/01 03:15:18;;;;;;;11.33;6.67;;;;;;;;;;754001;182;920044;-65
2021/09/01 03:17:44;;;;;;;8.57;5.97;;;;;;;;;;755074;184;918059;-64
2021/09/01 03:20:11;;;;;;;8.97;6.37;;;;;;;;;;758913;184;919621;-64
2021/09/01 03:22:36;;;;;;;11.50;7.17;;;;;;;;;;756679;182;919314;-67
2021/09/01 03:25:02;;;;;;;16.00;7.55;;;;;;;;;;757400;184;1021924;-67
2021/09/01 03:27:28;;;;;;;11.10;7.33;;;;;;;;;;759355;182;919175;-66
2021/09/01 03:29:54;;;;;;;11.90;6.60;;;;;;;;;;754892;182;920828;-70
2021/09/01 03:32:20;;;;;;;12.20;7.53;;;;;;;;;;754320;184;918432;-64
2021/09/01 03:34:46;;;;;;;12.40;8.10;;;;;;;;;;758815;184;921487;-64
2021/09/01 03:37:12;;;;;;;12.80;7.20;;;;;;;;;;754131;181;919407;-66
2021/09/01 03:39:38;;;;;;;9.97;6.93;;;;;;;;;;752510;181;918398;-64
2021/09/01 03:42:03;;;;;;;10.00;6.90;;;;;;;;;;753631;181;918698;-64
2021/09/01 03:44:29;;;;;;;13.33;8.10;;;;;;;;;;759648;184;919279;-65
2021/09/01 03:46:55;;;;;;;10.30;7.20;;;;;;;;;;755333;181;918228;-65
2021/09/01 03:49:21;;;;;;;15.83;7.67;;;;;;;;;;755506;184;920162;-65
2021/09/01 03:51:47;;;;;;;9.93;7.33;;;;;;;;;;761037;183;918672;-66
2021/09/01 03:54:13;;;;;;;15.73;8.07;;;;;;;;;;757622;181;917913;-65
2021/09/01 03:56:38;;;;;;;12.10;6.70;;;;;;;;;;755747;182;919297;-65
2021/09/01 03:59:04;;;;;;;13.80;6.60;;;;;;;;;;758758;183;917527;-65
2021/09/01 04:01:32;;;;;;;12.40;6.47;;;;;;;;;;755640;183;918784;-65
2021/09/01 04:03:56;;;;;;;8.93;6.60;;;;;;;;;;754723;183;945827;-65
2021/09/01 04:06:22;;;;;;;10.27;7.00;;;;;;;;;;755517;183;919674;-65
2021/09/01 04:08:48;;;;;;;10.53;6.17;;;;;;;;;;758835;184;617093;-66
2021/09/01 04:11:13;;;;;;;9.20;7.17;;;;;;;;;;755172;183;916720;-65
2021/09/01 04:13:39;;;;;;;11.63;6.53;;;;;;;;;;753460;184;919768;-65
2021/09/01 04:16:05;;;;;;;10.37;6.07;;;;;;;;;;763864;183;640923;-65
2021/09/01 04:18:31;;;;;;;10.50;6.13;;;;;;;;;;756427;183;918809;-65
2021/09/01 04:20:57;;;;;;;11.13;6.97;;;;;;;;;;755056;184;922114;-65
2021/09/01 04:23:23;;;;;;;10.90;6.10;;;;;;;;;;758167;184;918638;-65
2021/09/01 04:25:48;;;;;;;8.73;6.33;;;;;;;;;;755618;181;919333;-65
2021/09/01 04:28:14;;;;;;;10.67;6.03;;;;;;;;;;755267;181;920466;-65
2021/09/01 04:30:41;;;;;;;7.62;5.53;;;;;;;;;;755022;184;918570;-64
2021/09/01 04:33:06;;;;;;;8.50;5.63;;;;;;;;;;761902;181;919001;-64
2021/09/01 04:35:32;;;;;;;10.33;6.60;;;;;;;;;;752582;183;919601;-65
2021/09/01 04:37:58;;;;;;;11.35;7.07;;;;;;;;;;754562;184;920049;-65
2021/09/01 04:40:24;;;;;;;12.93;6.70;;;;;;;;;;759190;184;917738;-65
2021/09/01 04:42:50;;;;;;;9.15;5.87;;;;;;;;;;753018;184;1123168;-65
2021/09/01 04:45:16;;;;;;;13.00;6.87;;;;;;;;;;753817;184;919966;-66
2021/09/01 04:47:41;;;;;;;9.77;6.00;;;;;;;;;;760554;184;916510;-66
2021/09/01 04:50:07;;;;;;;9.97;5.70;;;;;;;;;;758800;184;637890;-65
2021/09/01 04:52:33;;;;;;;9.43;6.07;;;;;;;;;;760795;184;635497;-65
2021/09/01 04:55:00;;;;;;;9.17;6.10;;;;;;;;;;762131;184;614629;-65
2021/09/01 04:57:25;;;;;;;8.27;5.90;;;;;;;;;;757271;184;680124;-65
2021/09/01 04:59:51;;;;;;;11.63;6.57;;;;;;;;;;757843;183;919766;-65
2021/09/01 05:02:17;;;;;;;12.80;5.90;;;;;;;;;;755981;183;919093;-64
2021/09/01 05:04:42;;;;;;;7.40;5.93;;;;;;;;;;761585;183;920876;-65
2021/09/01 05:07:09;;;;;;;10.67;6.90;;;;;;;;;;756083;183;918666;-65
2021/09/01 05:09:34;;;;;;;13.10;6.70;;;;;;;;;;754504;184;926361;-65
2021/09/01 05:12:00;;;;;;;10.03;6.90;;;;;;;;;;760558;181;918430;-65
2021/09/01 05:14:26;;;;;;;9.97;6.03;;;;;;;;;;754423;183;919779;-65
2021/09/01 05:16:52;;;;;;;8.53;5.83;;;;;;;;;;756608;183;924205;-65
2021/09/01 05:19:17;;;;;;;9.87;6.50;;;;;;;;;;761257;183;918979;-65
2021/09/01 05:21:43;;;;;;;11.03;6.00;;;;;;;;;;755436;181;920989;-66
2021/09/01 05:24:09;;;;;;;9.50;6.33;;;;;;;;;;753565;181;919520;-65
2021/09/01 05:26:35;;;;;;;8.65;6.45;;;;;;;;;;754411;184;918940;-64
2021/09/01 05:29:01;;;;;;;14.43;6.10;;;;;;;;;;760885;183;920209;-66
2021/09/01 05:31:30;;;;;;;8.68;5.50;;;;;;;;;;752797;183;1123897;-66
2021/09/01 05:33:53;;;;;;;10.93;7.60;;;;;;;;;;752508;184;918449;-66
2021/09/01 05:36:19;;;;;;;9.80;5.70;;;;;;;;;;759214;184;919574;-66
2021/09/01 05:38:46;;;;;;;10.53;6.10;;;;;;;;;;753755;184;919656;-66
2021/09/01 05:41:11;;;;;;;13.35;6.35;;;;;;;;;;755070;181;923173;-66
2021/09/01 05:43:36;;;;;;;10.70;6.47;;;;;;;;;;759115;184;919481;-65
2021/09/01 05:46:02;;;;;;;11.00;6.73;;;;;;;;;;756677;184;919164;-66
2021/09/01 05:48:28;;;;;;;8.33;5.97;;;;;;;;;;755082;184;918513;-66
2021/09/01 05:50:55;;;;;;;8.05;5.10;;;;;;;;;;757067;184;919408;-65
2021/09/01 05:53:20;;;;;;;8.67;5.83;;;;;;;;;;759283;181;1226478;-67
2021/09/01 05:55:46;;;;;;;8.97;6.60;;;;;;;;;;753460;184;920961;-66
2021/09/01 05:58:15;;;;;;;8.13;5.27;;;;;;;;;;753333;181;917123;-66
2021/09/01 06:00:39;;;;;;;11.45;5.82;;;;;;;;;;758570;184;1020729;-66
2021/09/01 06:03:10;;;;;;;13.63;6.40;;;;;;;;;;754514;184;919392;-66
2021/09/01 06:05:36;;;;;;;8.37;5.57;;;;;;;;;;754375;184;918163;-66
2021/09/01 06:08:03;;;;;;;8.52;5.75;;;;;;;;;;755069;184;922930;-65
2021/09/01 06:10:29;;;;;;;9.23;5.40;;;;;;;;;;759495;181;919891;-66
2021/09/01 06:12:54;;;;;;;6.50;5.20;;;;;;;;;;757111;181;919211;-67
2021/09/01 06:15:20;;;;;;;9.80;5.00;;;;;;;;;;756817;183;918307;-65
2021/09/01 06:17:46;;;;;;;9.27;5.90;;;;;;;;;;760553;183;919535;-66
2021/09/01 06:20:12;;;;;;;10.90;6.23;;;;;;;;;;754720;183;915952;-67
2021/09/01 06:22:38;;;;;;;7.53;5.33;;;;;;;;;;753890;183;1019481;-65
2021/09/01 06:25:04;;;;;;;9.03;5.50;;;;;;;;;;759837;183;918729;-67
2021/09/01 06:27:30;;;;;;;9.13;6.20;;;;;;;;;;757126;183;919198;-66
2021/09/01 06:29:56;;;;;;;9.90;6.33;;;;;;;;;;757062;182;919675;-66
2021/09/01 06:32:23;;;;;;;10.85;6.05;;;;;;;;;;757763;183;919742;-65
2021/09/01 06:34:48;;;;;;;7.60;5.40;;;;;;;;;;755635;184;920452;-66
2021/09/01 06:37:14;;;;;;;8.53;5.20;;;;;;;;;;754748;183;920459;-66
2021/09/01 06:39:41;;;;;;;11.00;6.12;;;;;;;;;;753813;183;918864;-66
2021/09/01 06:42:07;;;;;;;13.90;6.60;;;;;;;;;;761962;183;920194;-66
2021/09/01 06:44:32;;;;;;;10.67;6.40;;;;;;;;;;755981;183;924512;-66
2021/09/01 06:46:58;;;;;;;20.00;7.00;;;;;;;;;;754747;184;917830;-66
2021/09/01 06:49:23;;;;;;;9.93;5.63;;;;;;;;;;758705;184;918110;-66
2021/09/01 06:51:49;;;;;;;7.83;5.10;;;;;;;;;;755597;184;917666;-65
2021/09/01 06:54:15;;;;;;;12.03;6.40;;;;;;;;;;753375;184;917113;-66
2021/09/01 06:56:41;;;;;;;10.30;5.73;;;;;;;;;;761072;184;712510;-66
2021/09/01 06:59:07;;;;;;;9.13;6.70;;;;;;;;;;751278;181;917247;-66
2021/09/01 07:01:33;;;;;;;10.20;7.93;;;;;;;;;;753114;184;923352;-66
2021/09/01 07:03:58;;;;;;;9.00;5.90;;;;;;;;;;753343;184;1015768;-66
2021/09/01 07:06:24;;;;;;;12.20;5.60;;;;;;;;;;758772;184;918648;-65
2021/09/01 07:08:50;;;;;;;10.60;6.90;;;;;;;;;;754974;184;919745;-66
2021/09/01 07:11:16;;;;;;;15.97;7.50;;;;;;;;;;753917;184;919684;-66
2021/09/01 07:13:43;;;;;;;8.40;5.93;;;;;;;;;;760044;184;919083;-66
2021/09/01 07:16:08;;;;;;;10.97;6.50;;;;;;;;;;756784;181;918349;-65
2021/09/01 07:18:33;;;;;;;9.23;6.10;;;;;;;;;;755338;182;919200;-66
2021/09/01 07:20:59;;;;;;;13.43;6.03;;;;;;;;;;758413;184;916066;-66
2021/09/01 07:23:25;;;;;;;8.60;5.60;;;;;;;;;;756383;182;919015;-66
2021/09/01 07:25:51;;;;;;;11.10;6.07;;;;;;;;;;755437;183;918469;-66
2021/09/01 07:28:17;;;;;;;10.83;6.17;;;;;;;;;;754445;184;918879;-65
2021/09/01 07:30:43;;;;;;;8.80;5.63;;;;;;;;;;761635;181;919791;-66
2021/09/01 07:33:08;;;;;;;6.77;4.83;;;;;;;;;;753245;184;919057;-66
2021/09/01 07:35:34;;;;;;;10.80;6.10;;;;;;;;;;752582;185;925171;-66
2021/09/01 07:38:00;;;;;;;9.93;6.27;;;;;;;;;;760137;183;917665;-66
2021/09/01 07:40:26;;;;;;;7.13;5.47;;;;;;;;;;755435;181;921015;-67
2021/09/01 07:42:52;;;;;;;12.93;6.03;;;;;;;;;;754478;182;1020759;-65
2021/09/01 07:45:18;;;;;;;9.70;5.47;;;;;;;;;;759353;181;919856;-66
2021/09/01 07:47:45;;;;;;;11.27;6.60;;;;;;;;;;756912;183;919550;-66
2021/09/01 07:50:11;;;;;;;10.50;6.50;;;;;;;;;;759081;183;722447;-65
2021/09/01 07:52:37;;;;;;;9.67;6.40;;;;;;;;;;758929;182;629667;-66
2021/09/01 07:55:03;;;;;;;14.40;7.13;;;;;;;;;;757740;182;617905;-66
2021/09/01 07:57:29;;;;;;;9.77;5.90;;;;;;;;;;756972;183;919204;-66
2021/09/01 07:59:55;;;;;;;8.57;6.10;;;;;;;;;;756067;183;919591;-67
2021/09/01 08:02:20;;;;;;;11.57;6.50;;;;;;;;;;749330;182;2675731;-65
2021/09/01 08:04:46;;;;;;;9.97;6.50;;;;;;;;;;755073;184;919238;-66
2021/09/01 08:07:12;;;;;;;7.85;5.20;;;;;;;;;;751311;184;920263;-66
2021/09/01 08:09:38;;;;;;;7.00;5.30;;;;;;;;;;759698;184;917718;-66
2021/09/01 08:12:04;;;;;;;7.97;5.82;;;;;;;;;;753691;184;919232;-66
2021/09/01 08:14:30;;;;;;;8.23;5.82;;;;;;;;;;754187;184;918620;-66
2021/09/01 08:16:56;;;;;;;13.38;8.18;;;;;;;;;;758242;184;919780;-66
2021/09/01 08:19:22;;;;;;;11.37;8.20;;;;;;;;;;753161;184;918397;-66
2021/09/01 08:21:48;;;;;;;9.20;7.50;;;;;;;;;;753502;184;919012;-65
2021/09/01 08:24:14;;;;;;;10.87;6.60;;;;;;;;;;753177;184;919898;-66
2021/09/01 08:26:40;;;;;;;7.77;6.33;;;;;;;;;;759600;184;929746;-66
2021/09/01 08:29:06;;;;;;;14.77;10.13;;;;;;;;;;754149;184;919832;-66
2021/09/01 08:31:31;;;;;;;10.10;7.60;;;;;;;;;;755320;184;918026;-65
2021/09/01 08:33:57;;;;;;;8.23;6.00;;;;;;;;;;760171;183;1021048;-66
2021/09/01 08:36:23;;;;;;;13.80;9.30;;;;;;;;;;756294;183;919583;-65
2021/09/01 08:38:49;;;;;;;10.40;6.37;;;;;;;;;;755853;184;919585;-66
2021/09/01 08:41:15;;;;;;;9.05;6.40;;;;;;;;;;761539;183;919374;-66
2021/09/01 08:43:41;;;;;;;7.67;5.87;;;;;;;;;;755121;183;919051;-66
2021/09/01 08:46:06;;;;;;;9.97;6.90;;;;;;;;;;754977;183;919248;-66
2021/09/01 08:48:32;;;;;;;10.33;6.63;;;;;;;;;;754190;183;919415;-65
2021/09/01 08:50:58;;;;;;;8.43;5.97;;;;;;;;;;761230;183;918936;-65
2021/09/01 08:53:24;;;;;;;9.37;6.60;;;;;;;;;;756071;183;917980;-66
2021/09/01 08:55:50;;;;;;;9.83;6.30;;;;;;;;;;754414;183;919427;-65
2021/09/01 08:58:16;;;;;;;10.73;6.13;;;;;;;;;;760911;183;920227;-66
2021/09/01 09:00:41;;;;;;;8.33;5.97;;;;;;;;;;754951;184;924020;-67
2021/09/01 09:03:07;;;;;;;11.27;6.23;;;;;;;;;;754164;183;919198;-66
2021/09/01 09:05:34;;;;;;;8.20;6.20;;;;;;;;;;758730;183;919243;-66
2021/09/01 09:08:00;;;;;;;10.43;6.70;;;;;;;;;;753877;183;919100;-66
2021/09/01 09:10:26;;;;;;;8.40;6.33;;;;;;;;;;754364;184;919545;-66
2021/09/01 09:12:55;;;;;;;8.77;5.97;;;;;;;;;;753714;184;918712;-65
2021/09/01 09:15:21;;;;;;;12.83;7.17;;;;;;;;;;753291;184;917844;-65
2021/09/01 09:17:47;;;;;;;9.37;6.00;;;;;;;;;;752781;182;918955;-67
2021/09/01 09:20:13;;;;;;;10.70;6.80;;;;;;;;;;752932;184;921717;-66
2021/09/01 09:22:39;;;;;;;11.47;7.17;;;;;;;;;;759123;182;919106;-66
2021/09/01 09:25:08;;;;;;;13.13;7.40;;;;;;;;;;755231;184;918731;-66
2021/09/01 09:27:35;;;;;;;11.77;7.47;;;;;;;;;;754792;184;919553;-66
2021/09/01 09:30:01;;;;;;;8.70;7.07;;;;;;;;;;753780;184;919412;-65
2021/09/01 09:32:26;;;;;;;14.27;8.60;;;;;;;;;;760372;184;915701;-67
2021/09/01 09:34:52;;;;;;;15.10;7.97;;;;;;;;;;753842;181;918880;-66
2021/09/01 09:37:18;;;;;;;12.50;7.57;;;;;;;;;;753807;184;924294;-65
2021/09/01 09:39:46;;;;;;;11.57;8.60;;;;;;;;;;758360;181;914471;-65
2021/09/01 09:42:11;;;;;;;12.00;8.10;;;;;;;;;;753561;182;919943;-66
2021/09/01 09:44:36;;;;;;;11.50;8.43;;;;;;;;;;753670;175;915269;-85
2021/09/01 09:47:02;;;;;;;17.27;8.27;;;;;;;;;;757753;175;625540;-85
2021/09/01 09:49:28;;;;;;;11.93;8.53;;;;;;;;;;765396;181;630015;-85
2021/09/01 09:51:54;;;;;;;10.93;6.23;;;;;;;;;;757178;181;676242;-86
2021/09/01 09:54:20;;;;;;;11.77;7.30;;;;;;;;;;762875;178;1505860;-85
2021/09/01 09:56:46;;;;;;;9.60;5.93;;;;;;;;;;761253;185;644695;-85
2021/09/01 09:59:12;;;;;;;8.57;6.13;;;;;;;;;;766474;172;643174;-85
2021/09/01 10:01:39;;;;;;;11.57;6.63;;;;;;;;;;755028;179;646463;-84
2021/09/01 10:04:04;;;;;;;7.20;5.67;;;;;;;;;;758290;177;626748;-85
2021/09/01 10:09:24;;;;;;;10.40;5.60;;;;;;;;;;725210;180;26952;-86
2021/09/01 10:11:50;;;;;;;10.40;5.87;;;;;;;;;;754242;182;626324;-86
2021/09/01 10:14:16;;;;;;;10.50;6.10;;;;;;;;;;757984;178;664016;-86
2021/09/01 10:16:41;;;;;;;8.07;5.50;;;;;;;;;;733570;190;726321;-85
2021/09/01 10:19:08;;;;;;;7.35;5.62;;;;;;;;;;744014;181;635680;-86
2021/09/01 10:21:36;;;;;;;8.80;5.77;;;;;;;;;;750315;182;621485;-86
2021/09/01 10:24:21;;;;;;;12.30;6.10;;;;;;;;;;739944;188;623808;-86
2021/09/01 10:27:02;;;;;;;7.70;4.77;;;;;;;;;;754324;178;637626;-86
2021/09/01 10:29:49;;;;;;;8.67;5.57;;;;;;;;;;768609;176;625207;31
2021/09/01 10:32:18;;;;;;;9.63;6.17;;;;;;;;;;762008;172;644051;-86
2021/09/01 10:34:45;;;;;;;7.57;5.57;;;;;;;;;;753736;184;645447;-86
2021/09/01 10:37:10;;;;;;;9.40;5.90;;;;;;;;;;755740;177;616261;-86
2021/09/01 10:39:39;;;;;;;11.60;6.20;;;;;;;;;;760228;175;635712;-85
2021/09/01 10:42:27;;;;;;;11.17;7.03;;;;;;;;;;777889;178;26963;-85
2021/09/01 10:48:05;;;;;;;7.40;5.40;;;;;;;;;;763697;178;672342;-85
2021/09/01 10:50:33;;;;;;;6.97;5.30;;;;;;;;;;764736;178;621023;-86
2021/09/01 10:53:02;;;;;;;14.47;6.73;;;;;;;;;;745608;181;615561;-87
2021/09/01 10:55:26;;;;;;;9.73;6.00;;;;;;;;;;754152;176;615115;-85
2021/09/01 10:57:58;;;;;;;12.43;6.50;;;;;;;;;;749442;186;624094;-85
2021/09/01 11:00:24;;;;;;;12.13;5.57;;;;;;;;;;751472;178;645956;-87
2021/09/01 11:02:50;;;;;;;6.83;6.00;;;;;;;;;;767874;178;636115;-89
2021/09/01 11:05:15;;;;;;;12.10;6.10;;;;;;;;;;763057;175;613112;-91
2021/09/01 11:07:41;;;;;;;11.33;5.03;;;;;;;;;;781757;175;26558;-89
2021/09/01 11:13:00;;;;;;;12.03;5.87;;;;;;;;;;755429;180;26565;-86
2021/09/01 11:15:29;;;;;;;7.43;5.47;;;;;;;;;;767580;178;625609;31
2021/09/01 11:18:01;;;;;;;8.30;5.20;;;;;;;;;;777890;176;628292;-86
2021/09/01 11:23:24;;;;;;;9.80;6.27;;;;;;;;;;783580;173;26875;-91
2021/09/01 11:25:57;;;;;;;6.90;4.70;;;;;;;;;;766545;178;627292;-84
2021/09/01 11:28:23;;;;;;;8.10;5.90;;;;;;;;;;761895;176;636067;-89
2021/09/01 11:30:48;;;;;;;9.70;5.57;;;;;;;;;;777990;175;625836;-90
2021/09/01 11:36:15;;;;;;;11.80;6.07;;;;;;;;;;739716;175;26513;31
2021/09/01 11:38:43;;;;;;;7.90;5.20;;;;;;;;;;767773;178;626435;-89
2021/09/01 11:41:09;;;;;;;8.40;5.30;;;;;;;;;;755556;175;630796;-90
2021/09/01 11:46:36;;;;;;;6.57;4.40;;;;;;;;;;725068;178;26536;31
2021/09/01 11:54:47;;;;;;;5.90;4.50;;;;;;;;;;749745;174;26968;-84
2021/09/01 12:11:34;;;;;;;5.30;3.47;;;;;;;;;;742738;175;625254;-92
2021/09/01 12:14:00;;;;;;;7.00;3.80;;;;;;;;;;778711;175;26568;-85
2021/09/01 12:16:28;;;;;;;5.83;4.10;;;;;;;;;;776160;174;624697;-83
2021/09/01 12:18:54;;;;;;;10.23;4.00;;;;;;;;;;778973;175;627784;-90
2021/09/01 12:24:13;;;;;;;7.77;4.50;;;;;;;;;;761418;178;617810;-83
2021/09/01 12:26:45;;;;;;;6.93;4.30;;;;;;;;;;766200;176;615650;-83
2021/09/01 12:29:11;;;;;;;4.90;3.50;;;;;;;;;;783421;178;626465;-84
2021/09/01 12:34:33;;;;;;;6.93;4.10;;;;;;;;;;748637;177;647973;-85
2021/09/01 12:36:59;;;;;;;5.43;3.63;;;;;;;;;;754476;175;648991;-89
2021/09/01 12:51:02;;;;;;;9.70;4.33;;;;;;;;;;781296;175;638133;31
2021/09/01 12:53:52;;;;;;;6.27;3.73;;;;;;;;;;778522;178;27585;31
2021/09/01 13:02:14;;;;;;;6.70;4.77;;;;;;;;;;755049;175;26531;-86
2021/09/01 13:04:40;;;;;;;6.47;3.57;;;;;;;;;;764701;178;617679;-89
2021/09/01 13:07:14;;;;;;;4.53;3.87;;;;;;;;;;758973;179;629122;31
2021/09/01 13:09:40;;;;;;;8.50;4.27;;;;;;;;;;775960;179;26595;-89
2021/09/01 13:12:06;;;;;;;6.37;4.37;;;;;;;;;;758359;179;651042;-88
2021/09/01 13:14:40;;;;;;;6.30;4.00;;;;;;;;;;777791;175;26798;31
2021/09/01 13:17:13;;;;;;;7.47;4.87;;;;;;;;;;764823;176;636428;-83
2021/09/01 13:24:57;;;;;;;8.40;4.40;;;;;;;;;;767462;178;635273;-84
2021/09/01 13:27:23;;;;;;;5.70;3.80;;;;;;;;;;758071;182;619847;-83
2021/09/01 13:35:32;;;;;;;7.60;4.30;;;;;;;;;;776344;178;683223;-84
2021/09/01 13:37:58;;;;;;;7.60;3.97;;;;;;;;;;757925;175;649574;-86
2021/09/01 13:40:24;;;;;;;5.63;3.63;;;;;;;;;;755225;179;624535;-87
2021/09/01 13:42:52;;;;;;;7.32;4.05;;;;;;;;;;770274;179;1651243;-86
2021/09/01 13:45:29;;;;;;;11.40;4.77;;;;;;;;;;762167;175;1937514;31
2021/09/01 13:47:55;;;;;;;8.03;4.57;;;;;;;;;;734184;179;653526;-87
2021/09/01 13:50:21;;;;;;;8.83;4.20;;;;;;;;;;762570;179;616143;-84
2021/09/01 13:52:47;;;;;;;6.13;4.37;;;;;;;;;;752633;185;623827;-86
2021/09/01 13:58:06;;;;;;;4.80;3.37;;;;;;;;;;770747;178;646306;-87
2021/09/01 14:00:34;;;;;;;6.50;4.23;;;;;;;;;;754125;179;625508;-86
2021/09/01 14:02:59;;;;;;;11.47;4.30;;;;;;;;;;765704;178;622815;-85
2021/09/01 14:05:25;;;;;;;6.50;3.90;;;;;;;;;;757240;179;617862;-86
2021/09/01 14:13:51;;;;;;;6.07;4.10;;;;;;;;;;779894;175;625734;-84
2021/09/01 14:19:09;;;;;;;6.60;4.47;;;;;;;;;;761180;179;634850;-85
2021/09/01 14:24:27;;;;;;;5.97;3.77;;;;;;;;;;758146;175;615785;-86
2021/09/01 14:26:53;;;;;;;8.40;3.70;;;;;;;;;;744514;188;734787;-84
2021/09/01 14:32:12;;;;;;;6.13;4.37;;;;;;;;;;755039;178;642815;-85
2021/09/01 14:34:38;;;;;;;6.80;4.13;;;;;;;;;;753965;183;628691;-88
2021/09/01 14:37:04;;;;;;;7.50;4.30;;;;;;;;;;755693;181;680790;-89
2021/09/01 14:39:30;;;;;;;5.93;4.00;;;;;;;;;;716494;190;918990;-68
2021/09/01 14:41:56;;;;;;;7.03;4.07;;;;;;;;;;705906;198;916652;-67
2021/09/01 14:44:21;;;;;;;7.57;4.80;;;;;;;;;;737818;190;919268;-67
2021/09/01 14:49:40;;;;;;;8.20;4.97;;;;;;;;;;771826;175;626171;-87
2021/09/01 14:52:06;;;;;;;7.07;4.57;;;;;;;;;;743784;186;640398;-86
2021/09/01 14:54:32;;;;;;;9.40;5.80;;;;;;;;;;724736;192;788445;-89
2021/09/01 14:56:57;;;;;;;8.47;5.07;;;;;;;;;;711803;196;628292;-84
2021/09/01 14:59:23;;;;;;;9.53;4.53;;;;;;;;;;729260;189;635717;-88
2021/09/01 15:01:51;;;;;;;8.20;5.50;;;;;;;;;;733968;189;883409;-87
2021/09/01 15:04:17;;;;;;;10.43;4.80;;;;;;;;;;740319;190;644442;-86
2021/09/01 15:06:43;;;;;;;6.60;4.37;;;;;;;;;;733416;190;644597;-83
2021/09/01 15:09:08;;;;;;;7.60;4.73;;;;;;;;;;735193;190;627838;-90
2021/09/01 15:11:34;;;;;;;7.27;4.83;;;;;;;;;;736652;190;624977;-87
2021/09/01 15:14:00;;;;;;;6.32;4.40;;;;;;;;;;735550;190;644518;-83
2021/09/01 15:16:26;;;;;;;9.37;5.50;;;;;;;;;;735744;190;638105;-85
2021/09/01 15:18:52;;;;;;;10.50;6.80;;;;;;;;;;738686;190;630497;-84
2021/09/01 15:21:18;;;;;;;5.43;3.77;;;;;;;;;;737691;190;676719;-84
2021/09/01 15:23:43;;;;;;;12.10;6.00;;;;;;;;;;738298;190;630070;-87
2021/09/01 15:26:09;;;;;;;7.80;4.57;;;;;;;;;;736678;190;710570;-89
2021/09/01 15:28:35;;;;;;;7.47;4.60;;;;;;;;;;734239;191;615987;-85
2021/09/01 15:31:01;;;;;;;7.90;4.00;;;;;;;;;;730762;191;674900;-84
2021/09/01 15:33:27;;;;;;;8.40;4.83;;;;;;;;;;724794;191;816490;-87
2021/09/01 15:35:53;;;;;;;10.30;4.57;;;;;;;;;;735875;191;621360;-86
2021/09/01 15:38:19;;;;;;;6.50;4.53;;;;;;;;;;711476;196;707250;-86
2021/09/01 15:40:45;;;;;;;7.93;4.80;;;;;;;;;;735973;190;645574;-85
2021/09/01 15:43:10;;;;;;;6.03;4.00;;;;;;;;;;739059;189;663507;-84
2021/09/01 15:45:36;;;;;;;7.73;5.20;;;;;;;;;;741214;187;632952;-87
2021/09/01 15:48:03;;;;;;;7.57;4.90;;;;;;;;;;733311;189;634257;-88
2021/09/01 15:50:28;;;;;;;6.60;4.03;;;;;;;;;;734987;189;898082;-87